sensor_id;sensor_type;location;lat;lon;timestamp;P1;durP1;ratioP1;P2;durP2;ratioP2
69837;SDS011;57135;51.992;4.476;2022-10-31T00:00:58;3.06;;;3.04;;
69837;SDS011;57135;51.992;4.476;2022-10-31T00:03:24;2.96;;;2.94;;
69837;SDS011;57135;51.992;4.476;2022-10-31T00:05:51;2.84;;;2.83;;
69837;SDS011;57135;51.992;4.476;2022-10-31T00:08:17;3.21;;;3.19;;
69837;SDS011;57135;51.992;4.476;2022-10-31T00:10:43;3.13;;;3.12;;
69837;SDS011;57135;51.992;4.476;2022-10-31T00:13:09;3.20;;;3.19;;
69837;SDS011;57135;51.992;4.476;2022-10-31T00:15:37;3.03;;;3.03;;
69837;SDS011;57135;51.992;4.476;2022-10-31T00:18:03;2.94;;;2.94;;
69837;SDS011;57135;51.992;4.476;2022-10-31T00:20:30;2.82;;;2.82;;
69837;SDS011;57135;51.992;4.476;2022-10-31T00:22:59;3.15;;;3.14;;
69837;SDS011;57135;51.992;4.476;2022-10-31T00:25:26;3.27;;;3.27;;
69837;SDS011;57135;51.992;4.476;2022-10-31T00:27:52;3.07;;;3.06;;
69837;SDS011;57135;51.992;4.476;2022-10-31T00:30:18;3.43;;;3.42;;
69837;SDS011;57135;51.992;4.476;2022-10-31T00:32:43;3.30;;;3.28;;
69837;SDS011;57135;51.992;4.476;2022-10-31T00:35:09;3.23;;;3.22;;
69837;SDS011;57135;51.992;4.476;2022-10-31T00:37:34;3.33;;;3.33;;
69837;SDS011;57135;51.992;4.476;2022-10-31T00:39:59;3.28;;;3.27;;
69837;SDS011;57135;51.992;4.476;2022-10-31T00:42:25;3.22;;;3.21;;
69837;SDS011;57135;51.992;4.476;2022-10-31T00:44:50;3.18;;;3.18;;
69837;SDS011;57135;51.992;4.476;2022-10-31T00:47:16;3.25;;;3.25;;
69837;SDS011;57135;51.992;4.476;2022-10-31T00:49:41;3.32;;;3.30;;
69837;SDS011;57135;51.992;4.476;2022-10-31T00:52:07;3.46;;;3.45;;
69837;SDS011;57135;51.992;4.476;2022-10-31T00:54:32;3.43;;;3.43;;
69837;SDS011;57135;51.992;4.476;2022-10-31T00:56:58;3.60;;;3.60;;
69837;SDS011;57135;51.992;4.476;2022-10-31T00:59:23;3.69;;;3.68;;
69837;SDS011;57135;51.992;4.476;2022-10-31T01:01:48;3.91;;;3.88;;
69837;SDS011;57135;51.992;4.476;2022-10-31T01:04:14;3.94;;;3.91;;
69837;SDS011;57135;51.992;4.476;2022-10-31T01:06:40;4.16;;;4.13;;
69837;SDS011;57135;51.992;4.476;2022-10-31T01:09:05;4.17;;;4.15;;
69837;SDS011;57135;51.992;4.476;2022-10-31T01:11:31;4.72;;;4.71;;
69837;SDS011;57135;51.992;4.476;2022-10-31T01:13:56;4.67;;;4.67;;
69837;SDS011;57135;51.992;4.476;2022-10-31T01:16:23;4.48;;;4.46;;
69837;SDS011;57135;51.992;4.476;2022-10-31T01:18:49;4.76;;;4.74;;
69837;SDS011;57135;51.992;4.476;2022-10-31T01:21:19;4.61;;;4.59;;
69837;SDS011;57135;51.992;4.476;2022-10-31T01:23:46;4.85;;;4.85;;
69837;SDS011;57135;51.992;4.476;2022-10-31T01:26:13;5.06;;;5.04;;
69837;SDS011;57135;51.992;4.476;2022-10-31T01:28:53;4.96;;;4.95;;
69837;SDS011;57135;51.992;4.476;2022-10-31T01:31:24;4.95;;;4.95;;
69837;SDS011;57135;51.992;4.476;2022-10-31T01:33:51;5.23;;;5.21;;
69837;SDS011;57135;51.992;4.476;2022-10-31T01:36:19;5.30;;;5.28;;
69837;SDS011;57135;51.992;4.476;2022-10-31T01:39:05;5.57;;;5.55;;
69837;SDS011;57135;51.992;4.476;2022-10-31T01:41:35;5.29;;;5.27;;
69837;SDS011;57135;51.992;4.476;2022-10-31T01:44:43;5.37;;;5.36;;
69837;SDS011;57135;51.992;4.476;2022-10-31T01:49:23;5.75;;;5.72;;
69837;SDS011;57135;51.992;4.476;2022-10-31T01:51:54;5.51;;;5.49;;
69837;SDS011;57135;51.992;4.476;2022-10-31T01:54:25;5.81;;;5.81;;
69837;SDS011;57135;51.992;4.476;2022-10-31T01:56:55;6.03;;;6.03;;
69837;SDS011;57135;51.992;4.476;2022-10-31T01:59:23;6.05;;;6.04;;
69837;SDS011;57135;51.992;4.476;2022-10-31T02:01:53;6.53;;;6.53;;
69837;SDS011;57135;51.992;4.476;2022-10-31T02:04:19;6.43;;;6.43;;
69837;SDS011;57135;51.992;4.476;2022-10-31T02:06:49;6.54;;;6.54;;
69837;SDS011;57135;51.992;4.476;2022-10-31T02:09:23;6.10;;;6.06;;
69837;SDS011;57135;51.992;4.476;2022-10-31T02:11:51;6.59;;;6.55;;
69837;SDS011;57135;51.992;4.476;2022-10-31T02:14:22;6.74;;;6.71;;
69837;SDS011;57135;51.992;4.476;2022-10-31T02:16:50;6.52;;;6.52;;
69837;SDS011;57135;51.992;4.476;2022-10-31T02:19:18;6.65;;;6.64;;
69837;SDS011;57135;51.992;4.476;2022-10-31T02:27:32;6.25;;;6.22;;
69837;SDS011;57135;51.992;4.476;2022-10-31T02:35:39;5.92;;;5.90;;
69837;SDS011;57135;51.992;4.476;2022-10-31T02:40:56;5.83;;;5.82;;
69837;SDS011;57135;51.992;4.476;2022-10-31T02:43:43;6.22;;;6.21;;
69837;SDS011;57135;51.992;4.476;2022-10-31T02:46:33;6.22;;;6.21;;
69837;SDS011;57135;51.992;4.476;2022-10-31T02:49:18;5.97;;;5.92;;
69837;SDS011;57135;51.992;4.476;2022-10-31T02:51:58;6.28;;;6.24;;
69837;SDS011;57135;51.992;4.476;2022-10-31T02:54:24;6.70;;;6.68;;
69837;SDS011;57135;51.992;4.476;2022-10-31T02:56:56;7.29;;;7.29;;
69837;SDS011;57135;51.992;4.476;2022-10-31T02:59:27;6.70;;;6.70;;
69837;SDS011;57135;51.992;4.476;2022-10-31T03:07:19;7.67;;;7.62;;
69837;SDS011;57135;51.992;4.476;2022-10-31T03:10:11;7.24;;;7.20;;
69837;SDS011;57135;51.992;4.476;2022-10-31T03:15:45;7.63;;;7.54;;
69837;SDS011;57135;51.992;4.476;2022-10-31T03:18:20;7.53;;;7.45;;
69837;SDS011;57135;51.992;4.476;2022-10-31T03:20:53;7.72;;;7.72;;
69837;SDS011;57135;51.992;4.476;2022-10-31T03:23:24;7.90;;;7.90;;
69837;SDS011;57135;51.992;4.476;2022-10-31T03:25:51;8.15;;;8.13;;
69837;SDS011;57135;51.992;4.476;2022-10-31T03:28:20;7.92;;;7.86;;
69837;SDS011;57135;51.992;4.476;2022-10-31T03:30:50;8.16;;;8.13;;
69837;SDS011;57135;51.992;4.476;2022-10-31T03:33:19;8.70;;;8.67;;
69837;SDS011;57135;51.992;4.476;2022-10-31T03:35:51;9.99;;;9.92;;
69837;SDS011;57135;51.992;4.476;2022-10-31T03:38:20;8.72;;;8.69;;
69837;SDS011;57135;51.992;4.476;2022-10-31T03:40:47;9.33;;;9.31;;
69837;SDS011;57135;51.992;4.476;2022-10-31T03:43:19;10.29;;;10.26;;
69837;SDS011;57135;51.992;4.476;2022-10-31T03:45:48;10.23;;;10.08;;
69837;SDS011;57135;51.992;4.476;2022-10-31T03:48:15;9.72;;;9.70;;
69837;SDS011;57135;51.992;4.476;2022-10-31T03:53:35;9.72;;;9.71;;
69837;SDS011;57135;51.992;4.476;2022-10-31T03:56:12;9.90;;;9.82;;
69837;SDS011;57135;51.992;4.476;2022-10-31T03:58:53;9.75;;;9.73;;
69837;SDS011;57135;51.992;4.476;2022-10-31T04:01:23;10.22;;;10.16;;
69837;SDS011;57135;51.992;4.476;2022-10-31T04:03:51;10.14;;;10.10;;
69837;SDS011;57135;51.992;4.476;2022-10-31T04:06:18;10.68;;;10.62;;
69837;SDS011;57135;51.992;4.476;2022-10-31T04:08:53;10.77;;;10.73;;
69837;SDS011;57135;51.992;4.476;2022-10-31T04:11:23;11.40;;;11.23;;
69837;SDS011;57135;51.992;4.476;2022-10-31T04:13:53;11.93;;;11.76;;
69837;SDS011;57135;51.992;4.476;2022-10-31T04:16:21;11.66;;;11.56;;
69837;SDS011;57135;51.992;4.476;2022-10-31T04:18:48;11.62;;;11.55;;
69837;SDS011;57135;51.992;4.476;2022-10-31T04:21:13;11.18;;;11.08;;
69837;SDS011;57135;51.992;4.476;2022-10-31T04:23:39;11.06;;;10.99;;
69837;SDS011;57135;51.992;4.476;2022-10-31T04:26:04;11.18;;;11.16;;
69837;SDS011;57135;51.992;4.476;2022-10-31T04:28:30;11.71;;;11.65;;
69837;SDS011;57135;51.992;4.476;2022-10-31T04:30:56;11.73;;;11.67;;
69837;SDS011;57135;51.992;4.476;2022-10-31T04:33:21;12.26;;;12.10;;
69837;SDS011;57135;51.992;4.476;2022-10-31T04:35:47;12.05;;;11.92;;
69837;SDS011;57135;51.992;4.476;2022-10-31T04:38:12;12.36;;;12.21;;
69837;SDS011;57135;51.992;4.476;2022-10-31T04:40:38;12.11;;;11.98;;
69837;SDS011;57135;51.992;4.476;2022-10-31T04:43:03;12.41;;;12.22;;
69837;SDS011;57135;51.992;4.476;2022-10-31T04:45:29;12.62;;;12.46;;
69837;SDS011;57135;51.992;4.476;2022-10-31T04:47:54;12.46;;;12.38;;
69837;SDS011;57135;51.992;4.476;2022-10-31T04:50:20;13.23;;;13.12;;
69837;SDS011;57135;51.992;4.476;2022-10-31T04:52:45;13.75;;;13.70;;
69837;SDS011;57135;51.992;4.476;2022-10-31T04:55:11;14.19;;;14.00;;
69837;SDS011;57135;51.992;4.476;2022-10-31T04:57:41;13.61;;;13.52;;
69837;SDS011;57135;51.992;4.476;2022-10-31T05:00:07;14.42;;;14.35;;
69837;SDS011;57135;51.992;4.476;2022-10-31T05:02:34;14.03;;;13.91;;
69837;SDS011;57135;51.992;4.476;2022-10-31T05:04:59;13.90;;;13.82;;
69837;SDS011;57135;51.992;4.476;2022-10-31T05:07:25;14.40;;;14.12;;
69837;SDS011;57135;51.992;4.476;2022-10-31T05:09:50;14.46;;;14.21;;
69837;SDS011;57135;51.992;4.476;2022-10-31T05:12:15;14.68;;;14.65;;
69837;SDS011;57135;51.992;4.476;2022-10-31T05:14:41;14.66;;;14.42;;
69837;SDS011;57135;51.992;4.476;2022-10-31T05:17:06;14.43;;;14.25;;
69837;SDS011;57135;51.992;4.476;2022-10-31T05:19:32;14.14;;;13.94;;
69837;SDS011;57135;51.992;4.476;2022-10-31T05:21:57;14.33;;;14.05;;
69837;SDS011;57135;51.992;4.476;2022-10-31T05:24:23;14.36;;;14.15;;
69837;SDS011;57135;51.992;4.476;2022-10-31T05:26:48;14.49;;;14.16;;
69837;SDS011;57135;51.992;4.476;2022-10-31T05:29:14;14.95;;;14.71;;
69837;SDS011;57135;51.992;4.476;2022-10-31T05:31:39;14.36;;;14.17;;
69837;SDS011;57135;51.992;4.476;2022-10-31T05:34:05;15.34;;;15.04;;
69837;SDS011;57135;51.992;4.476;2022-10-31T05:36:30;14.63;;;14.27;;
69837;SDS011;57135;51.992;4.476;2022-10-31T05:38:56;15.14;;;14.96;;
69837;SDS011;57135;51.992;4.476;2022-10-31T05:41:21;14.73;;;14.62;;
69837;SDS011;57135;51.992;4.476;2022-10-31T05:43:47;15.06;;;14.91;;
69837;SDS011;57135;51.992;4.476;2022-10-31T05:46:12;15.05;;;14.81;;
69837;SDS011;57135;51.992;4.476;2022-10-31T05:48:37;15.27;;;14.88;;
69837;SDS011;57135;51.992;4.476;2022-10-31T05:51:03;14.58;;;14.31;;
69837;SDS011;57135;51.992;4.476;2022-10-31T05:53:28;15.12;;;14.87;;
69837;SDS011;57135;51.992;4.476;2022-10-31T05:55:54;16.40;;;16.03;;
69837;SDS011;57135;51.992;4.476;2022-10-31T05:58:19;16.41;;;16.10;;
69837;SDS011;57135;51.992;4.476;2022-10-31T06:00:45;16.08;;;15.90;;
69837;SDS011;57135;51.992;4.476;2022-10-31T06:03:10;16.41;;;16.26;;
69837;SDS011;57135;51.992;4.476;2022-10-31T06:05:36;16.27;;;16.02;;
69837;SDS011;57135;51.992;4.476;2022-10-31T06:08:01;16.61;;;16.34;;
69837;SDS011;57135;51.992;4.476;2022-10-31T06:10:27;17.09;;;16.83;;
69837;SDS011;57135;51.992;4.476;2022-10-31T06:12:52;17.22;;;17.11;;
69837;SDS011;57135;51.992;4.476;2022-10-31T06:15:18;18.01;;;17.84;;
69837;SDS011;57135;51.992;4.476;2022-10-31T06:17:43;18.88;;;18.75;;
69837;SDS011;57135;51.992;4.476;2022-10-31T06:20:10;17.88;;;17.83;;
69837;SDS011;57135;51.992;4.476;2022-10-31T06:22:35;18.11;;;17.89;;
69837;SDS011;57135;51.992;4.476;2022-10-31T06:25:01;18.26;;;18.00;;
69837;SDS011;57135;51.992;4.476;2022-10-31T06:27:26;18.13;;;17.89;;
69837;SDS011;57135;51.992;4.476;2022-10-31T06:29:52;18.62;;;18.35;;
69837;SDS011;57135;51.992;4.476;2022-10-31T06:32:18;18.24;;;18.07;;
69837;SDS011;57135;51.992;4.476;2022-10-31T06:34:43;18.13;;;17.76;;
69837;SDS011;57135;51.992;4.476;2022-10-31T06:37:10;17.96;;;17.64;;
69837;SDS011;57135;51.992;4.476;2022-10-31T06:39:37;17.68;;;17.43;;
69837;SDS011;57135;51.992;4.476;2022-10-31T06:42:02;17.47;;;17.34;;
69837;SDS011;57135;51.992;4.476;2022-10-31T06:44:29;17.55;;;17.24;;
69837;SDS011;57135;51.992;4.476;2022-10-31T06:46:54;16.68;;;16.44;;
69837;SDS011;57135;51.992;4.476;2022-10-31T06:49:20;16.59;;;16.50;;
69837;SDS011;57135;51.992;4.476;2022-10-31T06:51:49;17.35;;;17.16;;
69837;SDS011;57135;51.992;4.476;2022-10-31T06:54:15;16.89;;;16.60;;
69837;SDS011;57135;51.992;4.476;2022-10-31T06:56:41;16.82;;;16.60;;
69837;SDS011;57135;51.992;4.476;2022-10-31T06:59:06;17.01;;;16.78;;
69837;SDS011;57135;51.992;4.476;2022-10-31T07:01:32;16.85;;;16.79;;
69837;SDS011;57135;51.992;4.476;2022-10-31T07:03:58;17.91;;;17.77;;
69837;SDS011;57135;51.992;4.476;2022-10-31T07:06:23;17.46;;;17.29;;
69837;SDS011;57135;51.992;4.476;2022-10-31T07:08:49;18.19;;;17.83;;
69837;SDS011;57135;51.992;4.476;2022-10-31T07:11:14;18.84;;;18.48;;
69837;SDS011;57135;51.992;4.476;2022-10-31T07:13:39;17.89;;;17.64;;
69837;SDS011;57135;51.992;4.476;2022-10-31T07:16:05;17.56;;;17.37;;
69837;SDS011;57135;51.992;4.476;2022-10-31T07:18:37;17.86;;;17.71;;
69837;SDS011;57135;51.992;4.476;2022-10-31T07:21:02;18.37;;;18.14;;
69837;SDS011;57135;51.992;4.476;2022-10-31T07:23:28;18.46;;;18.39;;
69837;SDS011;57135;51.992;4.476;2022-10-31T07:25:56;18.26;;;18.14;;
69837;SDS011;57135;51.992;4.476;2022-10-31T07:28:23;19.46;;;19.31;;
69837;SDS011;57135;51.992;4.476;2022-10-31T07:30:50;19.76;;;19.43;;
69837;SDS011;57135;51.992;4.476;2022-10-31T07:33:20;20.21;;;19.96;;
69837;SDS011;57135;51.992;4.476;2022-10-31T07:35:46;21.40;;;21.19;;
69837;SDS011;57135;51.992;4.476;2022-10-31T07:38:14;21.76;;;21.70;;
69837;SDS011;57135;51.992;4.476;2022-10-31T07:40:40;22.26;;;22.07;;
69837;SDS011;57135;51.992;4.476;2022-10-31T07:43:07;23.22;;;22.92;;
69837;SDS011;57135;51.992;4.476;2022-10-31T07:45:33;23.32;;;23.00;;
69837;SDS011;57135;51.992;4.476;2022-10-31T07:47:59;22.12;;;21.76;;
69837;SDS011;57135;51.992;4.476;2022-10-31T07:50:25;21.74;;;21.45;;
69837;SDS011;57135;51.992;4.476;2022-10-31T07:52:59;21.54;;;21.32;;
69837;SDS011;57135;51.992;4.476;2022-10-31T07:55:32;21.18;;;20.77;;
69837;SDS011;57135;51.992;4.476;2022-10-31T07:57:59;21.21;;;20.99;;
69837;SDS011;57135;51.992;4.476;2022-10-31T08:00:28;21.32;;;21.05;;
69837;SDS011;57135;51.992;4.476;2022-10-31T08:03:00;20.80;;;20.61;;
69837;SDS011;57135;51.992;4.476;2022-10-31T08:05:27;22.67;;;22.45;;
69837;SDS011;57135;51.992;4.476;2022-10-31T08:07:54;23.10;;;22.79;;
69837;SDS011;57135;51.992;4.476;2022-10-31T08:10:20;23.17;;;22.70;;
69837;SDS011;57135;51.992;4.476;2022-10-31T08:12:46;24.30;;;23.90;;
69837;SDS011;57135;51.992;4.476;2022-10-31T08:15:11;24.69;;;24.29;;
69837;SDS011;57135;51.992;4.476;2022-10-31T08:17:37;25.25;;;24.89;;
69837;SDS011;57135;51.992;4.476;2022-10-31T08:20:04;25.38;;;25.07;;
69837;SDS011;57135;51.992;4.476;2022-10-31T08:22:31;25.46;;;24.98;;
69837;SDS011;57135;51.992;4.476;2022-10-31T08:24:56;25.22;;;24.94;;
69837;SDS011;57135;51.992;4.476;2022-10-31T08:27:22;25.58;;;25.17;;
69837;SDS011;57135;51.992;4.476;2022-10-31T08:29:48;25.29;;;24.82;;
69837;SDS011;57135;51.992;4.476;2022-10-31T08:32:13;25.86;;;25.38;;
69837;SDS011;57135;51.992;4.476;2022-10-31T08:34:39;25.48;;;24.91;;
69837;SDS011;57135;51.992;4.476;2022-10-31T08:37:04;24.99;;;24.53;;
69837;SDS011;57135;51.992;4.476;2022-10-31T08:39:30;25.49;;;25.02;;
69837;SDS011;57135;51.992;4.476;2022-10-31T08:41:55;24.95;;;24.50;;
69837;SDS011;57135;51.992;4.476;2022-10-31T08:44:20;25.23;;;24.58;;
69837;SDS011;57135;51.992;4.476;2022-10-31T08:46:46;25.15;;;24.81;;
69837;SDS011;57135;51.992;4.476;2022-10-31T08:49:11;24.61;;;24.31;;
69837;SDS011;57135;51.992;4.476;2022-10-31T08:51:37;24.06;;;23.87;;
69837;SDS011;57135;51.992;4.476;2022-10-31T08:54:02;24.08;;;23.45;;
69837;SDS011;57135;51.992;4.476;2022-10-31T08:56:28;24.16;;;23.53;;
69837;SDS011;57135;51.992;4.476;2022-10-31T08:58:53;23.37;;;22.98;;
69837;SDS011;57135;51.992;4.476;2022-10-31T09:01:19;22.76;;;22.27;;
69837;SDS011;57135;51.992;4.476;2022-10-31T09:03:44;22.80;;;22.47;;
69837;SDS011;57135;51.992;4.476;2022-10-31T09:06:10;22.32;;;21.87;;
69837;SDS011;57135;51.992;4.476;2022-10-31T09:08:35;22.38;;;21.96;;
69837;SDS011;57135;51.992;4.476;2022-10-31T09:11:01;21.78;;;21.47;;
69837;SDS011;57135;51.992;4.476;2022-10-31T09:13:27;21.38;;;21.04;;
69837;SDS011;57135;51.992;4.476;2022-10-31T09:15:53;21.67;;;21.36;;
69837;SDS011;57135;51.992;4.476;2022-10-31T09:18:19;21.69;;;21.28;;
69837;SDS011;57135;51.992;4.476;2022-10-31T09:20:47;21.55;;;21.04;;
69837;SDS011;57135;51.992;4.476;2022-10-31T09:25:39;21.18;;;20.70;;
69837;SDS011;57135;51.992;4.476;2022-10-31T09:28:05;21.49;;;20.95;;
69837;SDS011;57135;51.992;4.476;2022-10-31T09:30:32;20.69;;;20.27;;
69837;SDS011;57135;51.992;4.476;2022-10-31T09:32:59;21.01;;;20.59;;
69837;SDS011;57135;51.992;4.476;2022-10-31T09:35:26;21.45;;;21.05;;
69837;SDS011;57135;51.992;4.476;2022-10-31T09:37:59;21.99;;;21.73;;
69837;SDS011;57135;51.992;4.476;2022-10-31T09:40:43;21.47;;;21.17;;
69837;SDS011;57135;51.992;4.476;2022-10-31T09:51:33;21.11;;;20.69;;
69837;SDS011;57135;51.992;4.476;2022-10-31T09:56:33;19.93;;;19.55;;
69837;SDS011;57135;51.992;4.476;2022-10-31T09:59:01;20.12;;;19.61;;
69837;SDS011;57135;51.992;4.476;2022-10-31T10:01:30;19.34;;;19.01;;
69837;SDS011;57135;51.992;4.476;2022-10-31T10:06:56;20.50;;;20.31;;
69837;SDS011;57135;51.992;4.476;2022-10-31T10:09:22;19.84;;;19.57;;
69837;SDS011;57135;51.992;4.476;2022-10-31T10:17:11;21.91;;;21.46;;
69837;SDS011;57135;51.992;4.476;2022-10-31T10:19:58;20.97;;;20.51;;
69837;SDS011;57135;51.992;4.476;2022-10-31T10:28:02;19.50;;;19.09;;
69837;SDS011;57135;51.992;4.476;2022-10-31T10:31:00;19.40;;;19.00;;
69837;SDS011;57135;51.992;4.476;2022-10-31T10:33:31;16.60;;;16.37;;
69837;SDS011;57135;51.992;4.476;2022-10-31T10:36:06;16.81;;;16.63;;
69837;SDS011;57135;51.992;4.476;2022-10-31T10:38:39;16.07;;;15.83;;
69837;SDS011;57135;51.992;4.476;2022-10-31T10:41:19;15.66;;;15.41;;
69837;SDS011;57135;51.992;4.476;2022-10-31T10:43:48;15.07;;;14.82;;
69837;SDS011;57135;51.992;4.476;2022-10-31T10:49:49;15.28;;;15.07;;
69837;SDS011;57135;51.992;4.476;2022-10-31T10:52:29;15.27;;;14.96;;
69837;SDS011;57135;51.992;4.476;2022-10-31T10:55:30;17.80;;;17.50;;
69837;SDS011;57135;51.992;4.476;2022-10-31T10:58:08;19.90;;;19.48;;
69837;SDS011;57135;51.992;4.476;2022-10-31T11:00:40;21.14;;;20.68;;
69837;SDS011;57135;51.992;4.476;2022-10-31T11:03:07;21.77;;;21.30;;
69837;SDS011;57135;51.992;4.476;2022-10-31T11:05:50;22.66;;;22.09;;
69837;SDS011;57135;51.992;4.476;2022-10-31T11:08:50;24.26;;;23.45;;
69837;SDS011;57135;51.992;4.476;2022-10-31T11:13:47;22.70;;;22.20;;
69837;SDS011;57135;51.992;4.476;2022-10-31T11:16:15;23.45;;;22.80;;
69837;SDS011;57135;51.992;4.476;2022-10-31T11:18:52;23.93;;;23.04;;
69837;SDS011;57135;51.992;4.476;2022-10-31T11:21:25;22.57;;;21.82;;
69837;SDS011;57135;51.992;4.476;2022-10-31T11:26:38;23.37;;;22.85;;
69837;SDS011;57135;51.992;4.476;2022-10-31T11:29:05;23.34;;;22.68;;
69837;SDS011;57135;51.992;4.476;2022-10-31T11:31:42;22.39;;;21.82;;
69837;SDS011;57135;51.992;4.476;2022-10-31T11:34:43;22.02;;;21.33;;
69837;SDS011;57135;51.992;4.476;2022-10-31T11:37:13;22.33;;;21.55;;
69837;SDS011;57135;51.992;4.476;2022-10-31T11:39:43;22.77;;;22.01;;
69837;SDS011;57135;51.992;4.476;2022-10-31T11:42:10;22.77;;;22.07;;
69837;SDS011;57135;51.992;4.476;2022-10-31T11:44:36;23.55;;;22.84;;
69837;SDS011;57135;51.992;4.476;2022-10-31T11:47:09;23.12;;;22.47;;
69837;SDS011;57135;51.992;4.476;2022-10-31T11:49:42;23.40;;;22.70;;
69837;SDS011;57135;51.992;4.476;2022-10-31T11:52:20;24.40;;;23.77;;
69837;SDS011;57135;51.992;4.476;2022-10-31T11:54:53;24.68;;;23.82;;
69837;SDS011;57135;51.992;4.476;2022-10-31T11:59:53;26.35;;;25.15;;
69837;SDS011;57135;51.992;4.476;2022-10-31T12:02:20;25.75;;;25.05;;
69837;SDS011;57135;51.992;4.476;2022-10-31T12:04:55;25.98;;;25.22;;
69837;SDS011;57135;51.992;4.476;2022-10-31T12:07:31;27.36;;;26.32;;
69837;SDS011;57135;51.992;4.476;2022-10-31T12:09:57;27.12;;;26.29;;
69837;SDS011;57135;51.992;4.476;2022-10-31T12:15:31;27.20;;;26.47;;
69837;SDS011;57135;51.992;4.476;2022-10-31T12:21:17;28.24;;;27.06;;
69837;SDS011;57135;51.992;4.476;2022-10-31T12:26:56;27.38;;;26.48;;
69837;SDS011;57135;51.992;4.476;2022-10-31T12:32:40;29.99;;;28.75;;
69837;SDS011;57135;51.992;4.476;2022-10-31T12:40:51;30.92;;;29.47;;
69837;SDS011;57135;51.992;4.476;2022-10-31T12:45:54;29.64;;;28.64;;
69837;SDS011;57135;51.992;4.476;2022-10-31T12:48:32;30.53;;;29.07;;
69837;SDS011;57135;51.992;4.476;2022-10-31T13:01:51;31.34;;;29.74;;
69837;SDS011;57135;51.992;4.476;2022-10-31T13:04:44;31.58;;;29.88;;
69837;SDS011;57135;51.992;4.476;2022-10-31T13:07:20;31.50;;;29.88;;
69837;SDS011;57135;51.992;4.476;2022-10-31T13:09:53;31.92;;;30.32;;
69837;SDS011;57135;51.992;4.476;2022-10-31T13:12:25;31.24;;;29.74;;
69837;SDS011;57135;51.992;4.476;2022-10-31T13:14:56;33.46;;;31.45;;
69837;SDS011;57135;51.992;4.476;2022-10-31T13:17:34;32.91;;;30.88;;
69837;SDS011;57135;51.992;4.476;2022-10-31T13:20:13;32.80;;;30.75;;
69837;SDS011;57135;51.992;4.476;2022-10-31T13:22:50;32.39;;;30.56;;
69837;SDS011;57135;51.992;4.476;2022-10-31T13:25:26;30.86;;;29.45;;
69837;SDS011;57135;51.992;4.476;2022-10-31T13:28:00;32.69;;;30.87;;
69837;SDS011;57135;51.992;4.476;2022-10-31T13:30:30;31.84;;;30.26;;
69837;SDS011;57135;51.992;4.476;2022-10-31T13:33:00;32.12;;;30.39;;
69837;SDS011;57135;51.992;4.476;2022-10-31T13:35:47;33.43;;;31.67;;
69837;SDS011;57135;51.992;4.476;2022-10-31T13:38:27;33.57;;;31.70;;
69837;SDS011;57135;51.992;4.476;2022-10-31T13:41:30;34.18;;;32.44;;
69837;SDS011;57135;51.992;4.476;2022-10-31T13:44:20;33.48;;;31.68;;
69837;SDS011;57135;51.992;4.476;2022-10-31T13:46:51;35.25;;;33.10;;
69837;SDS011;57135;51.992;4.476;2022-10-31T13:57:02;37.38;;;35.38;;
69837;SDS011;57135;51.992;4.476;2022-10-31T13:59:54;39.12;;;36.83;;
69837;SDS011;57135;51.992;4.476;2022-10-31T14:02:31;38.39;;;36.27;;
69837;SDS011;57135;51.992;4.476;2022-10-31T14:07:49;39.73;;;37.36;;
69837;SDS011;57135;51.992;4.476;2022-10-31T14:10:35;39.62;;;37.14;;
69837;SDS011;57135;51.992;4.476;2022-10-31T14:13:14;39.28;;;37.47;;
69837;SDS011;57135;51.992;4.476;2022-10-31T14:15:58;38.45;;;37.14;;
69837;SDS011;57135;51.992;4.476;2022-10-31T14:18:31;40.53;;;38.59;;
69837;SDS011;57135;51.992;4.476;2022-10-31T14:20:59;40.75;;;38.79;;
69837;SDS011;57135;51.992;4.476;2022-10-31T14:23:31;39.93;;;38.27;;
69837;SDS011;57135;51.992;4.476;2022-10-31T14:26:17;40.61;;;38.38;;
69837;SDS011;57135;51.992;4.476;2022-10-31T14:34:32;40.75;;;39.17;;
69837;SDS011;57135;51.992;4.476;2022-10-31T14:37:15;40.73;;;39.11;;
69837;SDS011;57135;51.992;4.476;2022-10-31T14:51:18;41.17;;;39.19;;
69837;SDS011;57135;51.992;4.476;2022-10-31T14:53:53;42.05;;;39.79;;
69837;SDS011;57135;51.992;4.476;2022-10-31T14:56:28;41.48;;;39.33;;
69837;SDS011;57135;51.992;4.476;2022-10-31T14:58:56;41.90;;;40.11;;
69837;SDS011;57135;51.992;4.476;2022-10-31T15:01:35;42.12;;;39.94;;
69837;SDS011;57135;51.992;4.476;2022-10-31T15:04:15;43.53;;;41.37;;
69837;SDS011;57135;51.992;4.476;2022-10-31T15:06:45;43.49;;;41.12;;
69837;SDS011;57135;51.992;4.476;2022-10-31T15:09:54;42.31;;;40.78;;
69837;SDS011;57135;51.992;4.476;2022-10-31T15:12:22;42.94;;;40.84;;
69837;SDS011;57135;51.992;4.476;2022-10-31T15:17:45;41.42;;;39.66;;
69837;SDS011;57135;51.992;4.476;2022-10-31T15:20:18;42.11;;;40.21;;
69837;SDS011;57135;51.992;4.476;2022-10-31T15:22:45;41.64;;;39.57;;
69837;SDS011;57135;51.992;4.476;2022-10-31T15:25:14;43.25;;;40.83;;
69837;SDS011;57135;51.992;4.476;2022-10-31T15:27:43;42.31;;;39.97;;
69837;SDS011;57135;51.992;4.476;2022-10-31T15:30:19;42.14;;;39.69;;
69837;SDS011;57135;51.992;4.476;2022-10-31T15:32:49;40.63;;;38.79;;
69837;SDS011;57135;51.992;4.476;2022-10-31T15:35:26;40.90;;;38.90;;
69837;SDS011;57135;51.992;4.476;2022-10-31T15:37:53;40.03;;;38.11;;
69837;SDS011;57135;51.992;4.476;2022-10-31T15:40:21;41.05;;;38.77;;
69837;SDS011;57135;51.992;4.476;2022-10-31T15:42:59;39.22;;;37.46;;
69837;SDS011;57135;51.992;4.476;2022-10-31T15:45:27;39.43;;;37.59;;
69837;SDS011;57135;51.992;4.476;2022-10-31T15:47:56;41.51;;;39.08;;
69837;SDS011;57135;51.992;4.476;2022-10-31T15:50:31;40.29;;;38.30;;
69837;SDS011;57135;51.992;4.476;2022-10-31T15:53:01;40.42;;;38.24;;
69837;SDS011;57135;51.992;4.476;2022-10-31T15:55:29;39.68;;;37.93;;
69837;SDS011;57135;51.992;4.476;2022-10-31T15:57:59;39.90;;;37.91;;
69837;SDS011;57135;51.992;4.476;2022-10-31T16:00:30;39.50;;;37.75;;
69837;SDS011;57135;51.992;4.476;2022-10-31T16:03:05;39.44;;;37.93;;
69837;SDS011;57135;51.992;4.476;2022-10-31T16:05:45;38.28;;;36.91;;
69837;SDS011;57135;51.992;4.476;2022-10-31T16:16:26;40.32;;;38.66;;
69837;SDS011;57135;51.992;4.476;2022-10-31T16:18:53;39.36;;;37.84;;
69837;SDS011;57135;51.992;4.476;2022-10-31T16:21:24;40.26;;;38.54;;
69837;SDS011;57135;51.992;4.476;2022-10-31T16:23:55;40.44;;;38.66;;
69837;SDS011;57135;51.992;4.476;2022-10-31T16:26:24;39.23;;;37.30;;
69837;SDS011;57135;51.992;4.476;2022-10-31T16:28:51;40.04;;;38.21;;
69837;SDS011;57135;51.992;4.476;2022-10-31T16:31:24;40.43;;;38.86;;
69837;SDS011;57135;51.992;4.476;2022-10-31T16:34:09;39.81;;;37.86;;
69837;SDS011;57135;51.992;4.476;2022-10-31T16:36:47;38.32;;;36.85;;
69837;SDS011;57135;51.992;4.476;2022-10-31T16:39:13;38.23;;;36.38;;
69837;SDS011;57135;51.992;4.476;2022-10-31T16:41:42;38.12;;;36.56;;
69837;SDS011;57135;51.992;4.476;2022-10-31T16:46:43;37.50;;;36.02;;
69837;SDS011;57135;51.992;4.476;2022-10-31T16:49:09;36.13;;;35.04;;
69837;SDS011;57135;51.992;4.476;2022-10-31T16:51:35;36.45;;;35.49;;
69837;SDS011;57135;51.992;4.476;2022-10-31T16:54:00;35.27;;;34.20;;
69837;SDS011;57135;51.992;4.476;2022-10-31T16:56:27;35.99;;;34.90;;
69837;SDS011;57135;51.992;4.476;2022-10-31T16:58:56;36.70;;;35.76;;
69837;SDS011;57135;51.992;4.476;2022-10-31T17:01:23;34.71;;;33.83;;
69837;SDS011;57135;51.992;4.476;2022-10-31T17:03:49;33.95;;;32.71;;